sensor_id;sensor_type;location;lat;lon;timestamp;P1;durP1;ratioP1;P2;durP2;ratioP2
74473;SDS011;62922;-6.168;106.796;2023-08-12T00:01:21;207.93;;;120.45;;
74473;SDS011;62922;-6.168;106.796;2023-08-12T00:03:48;205.48;;;119.93;;
74473;SDS011;62922;-6.168;106.796;2023-08-12T00:06:14;202.13;;;117.00;;
74473;SDS011;62922;-6.168;106.796;2023-08-12T00:08:40;193.45;;;116.82;;
74473;SDS011;62922;-6.168;106.796;2023-08-12T00:11:06;208.13;;;118.30;;
74473;SDS011;62922;-6.168;106.796;2023-08-12T00:13:32;204.43;;;117.15;;
74473;SDS011;62922;-6.168;106.796;2023-08-12T00:15:58;209.63;;;116.05;;
74473;SDS011;62922;-6.168;106.796;2023-08-12T00:18:24;224.18;;;122.80;;
74473;SDS011;62922;-6.168;106.796;2023-08-12T00:20:50;291.58;;;136.48;;
74473;SDS011;62922;-6.168;106.796;2023-08-12T00:23:16;295.00;;;137.55;;
74473;SDS011;62922;-6.168;106.796;2023-08-12T00:25:42;282.95;;;134.43;;
74473;SDS011;62922;-6.168;106.796;2023-08-12T00:28:08;293.30;;;134.68;;
74473;SDS011;62922;-6.168;106.796;2023-08-12T00:30:35;264.60;;;129.57;;
74473;SDS011;62922;-6.168;106.796;2023-08-12T00:33:01;267.98;;;129.50;;
74473;SDS011;62922;-6.168;106.796;2023-08-12T00:35:27;244.88;;;125.28;;
74473;SDS011;62922;-6.168;106.796;2023-08-12T00:37:53;273.50;;;133.40;;
74473;SDS011;62922;-6.168;106.796;2023-08-12T00:40:22;280.77;;;135.88;;
74473;SDS011;62922;-6.168;106.796;2023-08-12T00:42:50;290.92;;;137.48;;
74473;SDS011;62922;-6.168;106.796;2023-08-12T00:45:16;272.02;;;136.48;;
74473;SDS011;62922;-6.168;106.796;2023-08-12T00:47:42;320.15;;;146.38;;
74473;SDS011;62922;-6.168;106.796;2023-08-12T00:50:08;336.77;;;152.00;;
74473;SDS011;62922;-6.168;106.796;2023-08-12T00:52:34;324.70;;;152.55;;
74473;SDS011;62922;-6.168;106.796;2023-08-12T00:55:00;329.42;;;147.40;;
74473;SDS011;62922;-6.168;106.796;2023-08-12T00:57:26;316.92;;;145.57;;
74473;SDS011;62922;-6.168;106.796;2023-08-12T00:59:54;295.95;;;138.68;;
74473;SDS011;62922;-6.168;106.796;2023-08-12T01:02:21;263.60;;;130.73;;
74473;SDS011;62922;-6.168;106.796;2023-08-12T01:04:47;250.65;;;125.85;;
74473;SDS011;62922;-6.168;106.796;2023-08-12T01:07:13;227.40;;;120.55;;
74473;SDS011;62922;-6.168;106.796;2023-08-12T01:09:38;245.23;;;121.95;;
74473;SDS011;62922;-6.168;106.796;2023-08-12T01:12:06;279.73;;;130.73;;
74473;SDS011;62922;-6.168;106.796;2023-08-12T01:17:02;333.83;;;141.30;;
74473;SDS011;62922;-6.168;106.796;2023-08-12T01:19:30;371.05;;;148.60;;
74473;SDS011;62922;-6.168;106.796;2023-08-12T01:21:59;445.65;;;167.18;;
74473;SDS011;62922;-6.168;106.796;2023-08-12T01:24:26;454.35;;;169.65;;
74473;SDS011;62922;-6.168;106.796;2023-08-12T01:26:52;416.05;;;156.95;;
74473;SDS011;62922;-6.168;106.796;2023-08-12T01:29:20;434.85;;;161.05;;
74473;SDS011;62922;-6.168;106.796;2023-08-12T01:31:51;479.90;;;175.88;;
74473;SDS011;62922;-6.168;106.796;2023-08-12T01:34:39;486.77;;;179.20;;
74473;SDS011;62922;-6.168;106.796;2023-08-12T01:37:05;463.63;;;171.55;;
74473;SDS011;62922;-6.168;106.796;2023-08-12T01:39:32;421.88;;;159.18;;
74473;SDS011;62922;-6.168;106.796;2023-08-12T01:41:59;429.83;;;161.82;;
74473;SDS011;62922;-6.168;106.796;2023-08-12T01:44:25;316.05;;;136.35;;
74473;SDS011;62922;-6.168;106.796;2023-08-12T01:46:51;435.00;;;162.85;;
74473;SDS011;62922;-6.168;106.796;2023-08-12T01:49:17;452.02;;;166.68;;
74473;SDS011;62922;-6.168;106.796;2023-08-12T01:51:43;372.27;;;147.50;;
74473;SDS011;62922;-6.168;106.796;2023-08-12T01:54:09;399.13;;;152.73;;
74473;SDS011;62922;-6.168;106.796;2023-08-12T01:56:35;373.83;;;146.15;;
74473;SDS011;62922;-6.168;106.796;2023-08-12T01:59:01;343.33;;;138.75;;
74473;SDS011;62922;-6.168;106.796;2023-08-12T02:01:26;353.20;;;141.52;;
74473;SDS011;62922;-6.168;106.796;2023-08-12T02:03:52;286.25;;;128.07;;
74473;SDS011;62922;-6.168;106.796;2023-08-12T02:06:18;357.15;;;142.30;;
74473;SDS011;62922;-6.168;106.796;2023-08-12T02:08:45;283.20;;;126.78;;
74473;SDS011;62922;-6.168;106.796;2023-08-12T02:11:10;234.40;;;116.30;;
74473;SDS011;62922;-6.168;106.796;2023-08-12T02:13:38;322.38;;;134.90;;
74473;SDS011;62922;-6.168;106.796;2023-08-12T02:16:04;355.38;;;142.00;;
74473;SDS011;62922;-6.168;106.796;2023-08-12T02:18:30;291.65;;;130.02;;
74473;SDS011;62922;-6.168;106.796;2023-08-12T02:20:56;255.93;;;121.28;;
74473;SDS011;62922;-6.168;106.796;2023-08-12T02:23:22;237.50;;;118.57;;
74473;SDS011;62922;-6.168;106.796;2023-08-12T02:25:48;305.13;;;131.43;;
74473;SDS011;62922;-6.168;106.796;2023-08-12T02:28:13;286.98;;;128.15;;
74473;SDS011;62922;-6.168;106.796;2023-08-12T02:30:41;244.93;;;119.00;;
74473;SDS011;62922;-6.168;106.796;2023-08-12T02:33:07;239.52;;;118.68;;
74473;SDS011;62922;-6.168;106.796;2023-08-12T02:35:33;237.43;;;119.50;;
74473;SDS011;62922;-6.168;106.796;2023-08-12T02:37:59;397.17;;;152.75;;
74473;SDS011;62922;-6.168;106.796;2023-08-12T02:40:25;342.02;;;143.05;;
74473;SDS011;62922;-6.168;106.796;2023-08-12T02:42:50;182.95;;;103.38;;
74473;SDS011;62922;-6.168;106.796;2023-08-12T02:45:16;183.43;;;102.55;;
74473;SDS011;62922;-6.168;106.796;2023-08-12T02:47:42;309.75;;;132.00;;
74473;SDS011;62922;-6.168;106.796;2023-08-12T02:50:08;228.40;;;113.90;;
74473;SDS011;62922;-6.168;106.796;2023-08-12T02:52:34;133.82;;;87.13;;
74473;SDS011;62922;-6.168;106.796;2023-08-12T02:55:03;143.68;;;90.20;;
74473;SDS011;62922;-6.168;106.796;2023-08-12T02:57:29;122.60;;;83.30;;
74473;SDS011;62922;-6.168;106.796;2023-08-12T02:59:55;148.75;;;93.13;;
74473;SDS011;62922;-6.168;106.796;2023-08-12T03:02:20;225.95;;;115.15;;
74473;SDS011;62922;-6.168;106.796;2023-08-12T03:04:46;221.45;;;118.65;;
74473;SDS011;62922;-6.168;106.796;2023-08-12T03:07:12;141.77;;;93.95;;
74473;SDS011;62922;-6.168;106.796;2023-08-12T03:09:38;163.18;;;102.05;;
74473;SDS011;62922;-6.168;106.796;2023-08-12T03:12:04;145.57;;;92.68;;
74473;SDS011;62922;-6.168;106.796;2023-08-12T03:14:31;135.38;;;89.50;;
74473;SDS011;62922;-6.168;106.796;2023-08-12T03:16:57;156.05;;;98.72;;
74473;SDS011;62922;-6.168;106.796;2023-08-12T03:19:22;168.52;;;103.07;;
74473;SDS011;62922;-6.168;106.796;2023-08-12T03:21:48;126.32;;;88.03;;
74473;SDS011;62922;-6.168;106.796;2023-08-12T03:24:14;90.85;;;67.85;;
74473;SDS011;62922;-6.168;106.796;2023-08-12T03:26:40;87.22;;;63.70;;
74473;SDS011;62922;-6.168;106.796;2023-08-12T03:29:06;84.38;;;62.28;;
74473;SDS011;62922;-6.168;106.796;2023-08-12T03:31:32;70.63;;;56.28;;
74473;SDS011;62922;-6.168;106.796;2023-08-12T03:33:58;88.43;;;66.40;;
74473;SDS011;62922;-6.168;106.796;2023-08-12T03:36:23;88.65;;;66.35;;
74473;SDS011;62922;-6.168;106.796;2023-08-12T03:38:49;71.85;;;57.33;;
74473;SDS011;62922;-6.168;106.796;2023-08-12T03:41:15;77.82;;;58.45;;
74473;SDS011;62922;-6.168;106.796;2023-08-12T03:43:41;96.25;;;70.82;;
74473;SDS011;62922;-6.168;106.796;2023-08-12T03:46:07;105.63;;;77.65;;
74473;SDS011;62922;-6.168;106.796;2023-08-12T03:48:33;125.22;;;87.30;;
74473;SDS011;62922;-6.168;106.796;2023-08-12T03:51:01;152.27;;;98.32;;
74473;SDS011;62922;-6.168;106.796;2023-08-12T03:53:27;162.35;;;99.70;;
74473;SDS011;62922;-6.168;106.796;2023-08-12T03:55:53;139.27;;;89.55;;
74473;SDS011;62922;-6.168;106.796;2023-08-12T03:58:18;156.60;;;93.82;;
74473;SDS011;62922;-6.168;106.796;2023-08-12T04:00:45;185.55;;;100.03;;
74473;SDS011;62922;-6.168;106.796;2023-08-12T04:03:10;119.68;;;79.93;;
74473;SDS011;62922;-6.168;106.796;2023-08-12T04:05:36;122.18;;;80.05;;
74473;SDS011;62922;-6.168;106.796;2023-08-12T04:08:02;174.10;;;96.82;;
74473;SDS011;62922;-6.168;106.796;2023-08-12T04:10:29;68.85;;;49.05;;
74473;SDS011;62922;-6.168;106.796;2023-08-12T04:12:55;91.82;;;66.43;;
74473;SDS011;62922;-6.168;106.796;2023-08-12T04:15:21;113.63;;;73.30;;
74473;SDS011;62922;-6.168;106.796;2023-08-12T04:17:47;184.65;;;98.55;;
74473;SDS011;62922;-6.168;106.796;2023-08-12T04:20:13;170.63;;;95.03;;
74473;SDS011;62922;-6.168;106.796;2023-08-12T04:22:39;223.63;;;107.32;;
74473;SDS011;62922;-6.168;106.796;2023-08-12T04:25:05;138.95;;;84.85;;
74473;SDS011;62922;-6.168;106.796;2023-08-12T04:27:31;114.95;;;75.88;;
74473;SDS011;62922;-6.168;106.796;2023-08-12T04:29:57;89.93;;;64.05;;
74473;SDS011;62922;-6.168;106.796;2023-08-12T04:32:22;88.38;;;61.70;;
74473;SDS011;62922;-6.168;106.796;2023-08-12T04:34:48;93.72;;;66.22;;
74473;SDS011;62922;-6.168;106.796;2023-08-12T04:37:17;146.88;;;85.80;;
74473;SDS011;62922;-6.168;106.796;2023-08-12T04:39:43;105.43;;;68.97;;
74473;SDS011;62922;-6.168;106.796;2023-08-12T04:42:09;128.18;;;78.97;;
74473;SDS011;62922;-6.168;106.796;2023-08-12T04:44:34;139.43;;;82.25;;
74473;SDS011;62922;-6.168;106.796;2023-08-12T04:47:00;213.20;;;103.78;;
74473;SDS011;62922;-6.168;106.796;2023-08-12T04:49:26;200.15;;;100.20;;
74473;SDS011;62922;-6.168;106.796;2023-08-12T04:51:52;200.10;;;99.85;;
74473;SDS011;62922;-6.168;106.796;2023-08-12T04:54:18;177.48;;;93.03;;
74473;SDS011;62922;-6.168;106.796;2023-08-12T04:56:44;186.48;;;95.07;;
74473;SDS011;62922;-6.168;106.796;2023-08-12T04:59:10;183.20;;;94.47;;
74473;SDS011;62922;-6.168;106.796;2023-08-12T05:01:36;193.73;;;97.90;;
74473;SDS011;62922;-6.168;106.796;2023-08-12T05:04:04;175.15;;;93.13;;
74473;SDS011;62922;-6.168;106.796;2023-08-12T05:06:30;100.82;;;68.30;;
74473;SDS011;62922;-6.168;106.796;2023-08-12T05:08:56;152.38;;;86.53;;
74473;SDS011;62922;-6.168;106.796;2023-08-12T05:11:22;143.70;;;83.78;;
74473;SDS011;62922;-6.168;106.796;2023-08-12T05:13:48;120.97;;;76.15;;
74473;SDS011;62922;-6.168;106.796;2023-08-12T05:16:13;143.38;;;83.03;;
74473;SDS011;62922;-6.168;106.796;2023-08-12T05:18:39;152.32;;;86.07;;
74473;SDS011;62922;-6.168;106.796;2023-08-12T05:21:05;90.28;;;63.47;;
74473;SDS011;62922;-6.168;106.796;2023-08-12T05:23:31;80.22;;;58.78;;
74473;SDS011;62922;-6.168;106.796;2023-08-12T05:25:57;90.45;;;63.35;;
74473;SDS011;62922;-6.168;106.796;2023-08-12T05:28:23;79.95;;;58.83;;
74473;SDS011;62922;-6.168;106.796;2023-08-12T05:30:49;110.95;;;71.05;;
74473;SDS011;62922;-6.168;106.796;2023-08-12T05:33:14;148.82;;;87.32;;
74473;SDS011;62922;-6.168;106.796;2023-08-12T05:35:40;138.07;;;82.53;;
74473;SDS011;62922;-6.168;106.796;2023-08-12T05:38:06;122.65;;;78.07;;
74473;SDS011;62922;-6.168;106.796;2023-08-12T05:40:32;144.15;;;85.82;;
74473;SDS011;62922;-6.168;106.796;2023-08-12T05:42:58;142.75;;;83.30;;
74473;SDS011;62922;-6.168;106.796;2023-08-12T05:45:24;126.82;;;76.35;;
74473;SDS011;62922;-6.168;106.796;2023-08-12T05:47:50;132.73;;;80.97;;
74473;SDS011;62922;-6.168;106.796;2023-08-12T05:50:16;124.60;;;73.13;;
74473;SDS011;62922;-6.168;106.796;2023-08-12T05:52:43;110.63;;;70.85;;
74473;SDS011;62922;-6.168;106.796;2023-08-12T05:55:09;109.05;;;66.00;;
74473;SDS011;62922;-6.168;106.796;2023-08-12T05:57:34;100.68;;;66.25;;
74473;SDS011;62922;-6.168;106.796;2023-08-12T06:00:00;109.90;;;72.93;;
74473;SDS011;62922;-6.168;106.796;2023-08-12T06:02:26;118.15;;;76.82;;
74473;SDS011;62922;-6.168;106.796;2023-08-12T06:04:52;134.98;;;83.32;;
74473;SDS011;62922;-6.168;106.796;2023-08-12T06:07:18;113.45;;;76.05;;
74473;SDS011;62922;-6.168;106.796;2023-08-12T06:09:44;120.18;;;73.22;;
74473;SDS011;62922;-6.168;106.796;2023-08-12T06:12:10;102.97;;;71.57;;
74473;SDS011;62922;-6.168;106.796;2023-08-12T06:14:37;96.68;;;65.88;;
74473;SDS011;62922;-6.168;106.796;2023-08-12T06:17:04;94.80;;;69.68;;
74473;SDS011;62922;-6.168;106.796;2023-08-12T06:19:30;101.20;;;67.65;;
74473;SDS011;62922;-6.168;106.796;2023-08-12T06:21:55;106.60;;;72.50;;
74473;SDS011;62922;-6.168;106.796;2023-08-12T06:24:21;107.50;;;71.28;;
74473;SDS011;62922;-6.168;106.796;2023-08-12T06:26:47;106.75;;;68.28;;
74473;SDS011;62922;-6.168;106.796;2023-08-12T06:29:15;120.18;;;75.57;;
74473;SDS011;62922;-6.168;106.796;2023-08-12T06:31:41;117.68;;;75.47;;
74473;SDS011;62922;-6.168;106.796;2023-08-12T06:34:07;121.05;;;77.07;;
74473;SDS011;62922;-6.168;106.796;2023-08-12T06:36:33;111.03;;;72.07;;
74473;SDS011;62922;-6.168;106.796;2023-08-12T06:38:59;112.03;;;72.30;;
74473;SDS011;62922;-6.168;106.796;2023-08-12T06:41:25;79.43;;;57.42;;
74473;SDS011;62922;-6.168;106.796;2023-08-12T06:43:51;107.80;;;66.57;;
74473;SDS011;62922;-6.168;106.796;2023-08-12T06:46:16;90.22;;;62.08;;
74473;SDS011;62922;-6.168;106.796;2023-08-12T06:48:42;61.92;;;44.40;;
74473;SDS011;62922;-6.168;106.796;2023-08-12T06:51:08;62.25;;;46.55;;
74473;SDS011;62922;-6.168;106.796;2023-08-12T06:53:37;66.97;;;49.97;;
74473;SDS011;62922;-6.168;106.796;2023-08-12T06:56:02;69.63;;;50.78;;
74473;SDS011;62922;-6.168;106.796;2023-08-12T06:58:28;71.68;;;50.63;;
74473;SDS011;62922;-6.168;106.796;2023-08-12T07:00:54;80.68;;;50.72;;
74473;SDS011;62922;-6.168;106.796;2023-08-12T07:03:21;74.13;;;51.58;;
74473;SDS011;62922;-6.168;106.796;2023-08-12T07:05:47;90.00;;;56.55;;
74473;SDS011;62922;-6.168;106.796;2023-08-12T07:08:13;79.97;;;54.55;;
74473;SDS011;62922;-6.168;106.796;2023-08-12T07:10:39;79.60;;;54.60;;
74473;SDS011;62922;-6.168;106.796;2023-08-12T07:13:05;78.00;;;55.22;;
74473;SDS011;62922;-6.168;106.796;2023-08-12T07:15:31;62.72;;;44.70;;
74473;SDS011;62922;-6.168;106.796;2023-08-12T07:18:00;66.80;;;42.08;;
74473;SDS011;62922;-6.168;106.796;2023-08-12T07:20:25;51.95;;;34.78;;
74473;SDS011;62922;-6.168;106.796;2023-08-12T07:22:51;48.30;;;30.00;;
74473;SDS011;62922;-6.168;106.796;2023-08-12T07:25:17;52.60;;;34.53;;
74473;SDS011;62922;-6.168;106.796;2023-08-12T07:27:43;58.00;;;43.95;;
74473;SDS011;62922;-6.168;106.796;2023-08-12T07:30:09;50.13;;;36.42;;
74473;SDS011;62922;-6.168;106.796;2023-08-12T07:32:36;65.50;;;48.92;;
74473;SDS011;62922;-6.168;106.796;2023-08-12T07:35:03;39.63;;;16.23;;
74473;SDS011;62922;-6.168;106.796;2023-08-12T07:37:33;36.03;;;16.92;;
74473;SDS011;62922;-6.168;106.796;2023-08-12T07:39:59;38.88;;;25.30;;
74473;SDS011;62922;-6.168;106.796;2023-08-12T07:42:26;32.22;;;17.70;;
74473;SDS011;62922;-6.168;106.796;2023-08-12T07:44:51;39.75;;;20.60;;
74473;SDS011;62922;-6.168;106.796;2023-08-12T07:47:17;30.27;;;17.38;;
74473;SDS011;62922;-6.168;106.796;2023-08-12T07:49:44;35.35;;;16.73;;
74473;SDS011;62922;-6.168;106.796;2023-08-12T07:52:10;29.90;;;15.18;;
74473;SDS011;62922;-6.168;106.796;2023-08-12T07:54:36;27.48;;;15.52;;
74473;SDS011;62922;-6.168;106.796;2023-08-12T07:57:02;33.97;;;18.17;;
74473;SDS011;62922;-6.168;106.796;2023-08-12T07:59:28;30.75;;;19.98;;
74473;SDS011;62922;-6.168;106.796;2023-08-12T08:01:54;26.75;;;13.13;;
74473;SDS011;62922;-6.168;106.796;2023-08-12T08:04:20;33.80;;;14.65;;
74473;SDS011;62922;-6.168;106.796;2023-08-12T08:06:46;26.65;;;12.38;;
74473;SDS011;62922;-6.168;106.796;2023-08-12T08:09:12;25.35;;;12.02;;
74473;SDS011;62922;-6.168;106.796;2023-08-12T08:11:38;28.08;;;12.98;;
74473;SDS011;62922;-6.168;106.796;2023-08-12T08:14:04;26.58;;;13.27;;
74473;SDS011;62922;-6.168;106.796;2023-08-12T08:16:29;26.63;;;13.38;;
74473;SDS011;62922;-6.168;106.796;2023-08-12T08:18:55;27.23;;;13.70;;
74473;SDS011;62922;-6.168;106.796;2023-08-12T08:21:24;30.65;;;12.45;;
74473;SDS011;62922;-6.168;106.796;2023-08-12T08:23:50;23.92;;;11.60;;
74473;SDS011;62922;-6.168;106.796;2023-08-12T08:26:16;28.20;;;15.07;;
74473;SDS011;62922;-6.168;106.796;2023-08-12T08:28:42;38.63;;;16.58;;
74473;SDS011;62922;-6.168;106.796;2023-08-12T08:31:08;32.90;;;15.38;;
74473;SDS011;62922;-6.168;106.796;2023-08-12T08:33:34;26.15;;;13.57;;
74473;SDS011;62922;-6.168;106.796;2023-08-12T08:36:00;26.65;;;13.38;;
74473;SDS011;62922;-6.168;106.796;2023-08-12T08:38:26;27.73;;;12.57;;
74473;SDS011;62922;-6.168;106.796;2023-08-12T08:40:52;26.38;;;12.57;;
74473;SDS011;62922;-6.168;106.796;2023-08-12T08:43:20;26.30;;;12.30;;
74473;SDS011;62922;-6.168;106.796;2023-08-12T08:45:46;29.40;;;11.60;;
74473;SDS011;62922;-6.168;106.796;2023-08-12T08:48:13;26.38;;;12.07;;
74473;SDS011;62922;-6.168;106.796;2023-08-12T08:50:39;24.20;;;11.70;;
74473;SDS011;62922;-6.168;106.796;2023-08-12T08:53:06;24.13;;;11.13;;
74473;SDS011;62922;-6.168;106.796;2023-08-12T08:55:32;26.45;;;11.82;;
74473;SDS011;62922;-6.168;106.796;2023-08-12T08:57:58;29.15;;;11.98;;
74473;SDS011;62922;-6.168;106.796;2023-08-12T09:00:24;24.17;;;11.20;;
74473;SDS011;62922;-6.168;106.796;2023-08-12T09:02:50;19.92;;;10.30;;
74473;SDS011;62922;-6.168;106.796;2023-08-12T09:05:17;27.33;;;10.98;;
74473;SDS011;62922;-6.168;106.796;2023-08-12T09:07:43;22.85;;;10.63;;
74473;SDS011;62922;-6.168;106.796;2023-08-12T09:10:10;22.48;;;10.35;;
74473;SDS011;62922;-6.168;106.796;2023-08-12T09:12:36;25.80;;;10.80;;
74473;SDS011;62922;-6.168;106.796;2023-08-12T09:15:02;24.40;;;11.18;;
74473;SDS011;62922;-6.168;106.796;2023-08-12T09:17:28;36.75;;;12.43;;
74473;SDS011;62922;-6.168;106.796;2023-08-12T09:19:54;31.67;;;12.02;;
74473;SDS011;62922;-6.168;106.796;2023-08-12T09:22:20;39.28;;;11.65;;
74473;SDS011;62922;-6.168;106.796;2023-08-12T09:24:48;30.67;;;10.77;;
74473;SDS011;62922;-6.168;106.796;2023-08-12T09:27:16;24.30;;;11.57;;
74473;SDS011;62922;-6.168;106.796;2023-08-12T09:29:42;31.25;;;12.65;;
74473;SDS011;62922;-6.168;106.796;2023-08-12T09:32:19;26.77;;;12.10;;
74473;SDS011;62922;-6.168;106.796;2023-08-12T09:34:46;22.33;;;10.55;;
74473;SDS011;62922;-6.168;106.796;2023-08-12T09:37:13;28.17;;;11.05;;
74473;SDS011;62922;-6.168;106.796;2023-08-12T09:39:39;23.42;;;11.10;;
74473;SDS011;62922;-6.168;106.796;2023-08-12T09:42:05;25.73;;;11.68;;
74473;SDS011;62922;-6.168;106.796;2023-08-12T09:44:34;21.83;;;11.52;;
74473;SDS011;62922;-6.168;106.796;2023-08-12T09:47:00;31.90;;;11.27;;
74473;SDS011;62922;-6.168;106.796;2023-08-12T09:49:26;23.77;;;12.07;;
74473;SDS011;62922;-6.168;106.796;2023-08-12T09:51:53;29.27;;;12.50;;
74473;SDS011;62922;-6.168;106.796;2023-08-12T09:54:19;31.75;;;12.55;;
74473;SDS011;62922;-6.168;106.796;2023-08-12T09:56:48;23.25;;;11.60;;
74473;SDS011;62922;-6.168;106.796;2023-08-12T09:59:18;26.55;;;12.18;;
74473;SDS011;62922;-6.168;106.796;2023-08-12T10:01:46;39.53;;;12.85;;
74473;SDS011;62922;-6.168;106.796;2023-08-12T10:04:12;23.52;;;11.40;;
74473;SDS011;62922;-6.168;106.796;2023-08-12T10:06:40;24.15;;;11.85;;
74473;SDS011;62922;-6.168;106.796;2023-08-12T10:09:09;27.55;;;11.73;;
74473;SDS011;62922;-6.168;106.796;2023-08-12T10:11:36;23.33;;;11.60;;
74473;SDS011;62922;-6.168;106.796;2023-08-12T10:14:03;30.27;;;13.15;;
74473;SDS011;62922;-6.168;106.796;2023-08-12T10:16:31;38.65;;;13.32;;
74473;SDS011;62922;-6.168;106.796;2023-08-12T10:19:01;29.63;;;13.10;;
74473;SDS011;62922;-6.168;106.796;2023-08-12T10:21:27;32.08;;;18.55;;
74473;SDS011;62922;-6.168;106.796;2023-08-12T10:23:56;36.28;;;20.23;;
74473;SDS011;62922;-6.168;106.796;2023-08-12T10:26:23;33.15;;;18.05;;
74473;SDS011;62922;-6.168;106.796;2023-08-12T10:28:49;32.22;;;20.20;;
74473;SDS011;62922;-6.168;106.796;2023-08-12T10:31:15;35.50;;;15.70;;
74473;SDS011;62922;-6.168;106.796;2023-08-12T10:33:41;32.65;;;18.02;;
74473;SDS011;62922;-6.168;106.796;2023-08-12T10:36:10;42.03;;;28.48;;
74473;SDS011;62922;-6.168;106.796;2023-08-12T10:38:36;33.28;;;18.92;;
74473;SDS011;62922;-6.168;106.796;2023-08-12T10:43:48;43.53;;;32.33;;
74473;SDS011;62922;-6.168;106.796;2023-08-12T10:46:21;44.38;;;26.08;;
74473;SDS011;62922;-6.168;106.796;2023-08-12T10:49:06;38.30;;;25.52;;
74473;SDS011;62922;-6.168;106.796;2023-08-12T10:54:22;35.30;;;19.15;;
74473;SDS011;62922;-6.168;106.796;2023-08-12T11:02:23;36.22;;;22.33;;
74473;SDS011;62922;-6.168;106.796;2023-08-12T11:04:51;38.22;;;22.13;;
74473;SDS011;62922;-6.168;106.796;2023-08-12T11:07:20;33.78;;;20.55;;
74473;SDS011;62922;-6.168;106.796;2023-08-12T11:09:50;50.20;;;22.27;;
74473;SDS011;62922;-6.168;106.796;2023-08-12T11:12:36;63.05;;;22.33;;
74473;SDS011;62922;-6.168;106.796;2023-08-12T11:15:03;58.35;;;20.38;;
74473;SDS011;62922;-6.168;106.796;2023-08-12T11:17:33;29.88;;;16.13;;
74473;SDS011;62922;-6.168;106.796;2023-08-12T11:19:59;32.85;;;17.92;;
74473;SDS011;62922;-6.168;106.796;2023-08-12T11:22:25;32.10;;;18.23;;
74473;SDS011;62922;-6.168;106.796;2023-08-12T11:24:52;36.03;;;19.48;;
74473;SDS011;62922;-6.168;106.796;2023-08-12T11:27:18;33.70;;;20.05;;
74473;SDS011;62922;-6.168;106.796;2023-08-12T11:29:44;42.13;;;20.80;;
74473;SDS011;62922;-6.168;106.796;2023-08-12T11:32:12;34.33;;;20.27;;
74473;SDS011;62922;-6.168;106.796;2023-08-12T11:34:39;38.10;;;22.88;;
74473;SDS011;62922;-6.168;106.796;2023-08-12T11:37:05;41.80;;;23.67;;
74473;SDS011;62922;-6.168;106.796;2023-08-12T11:39:31;39.40;;;21.58;;
74473;SDS011;62922;-6.168;106.796;2023-08-12T11:41:56;36.67;;;21.63;;
74473;SDS011;62922;-6.168;106.796;2023-08-12T11:44:23;38.30;;;21.20;;
74473;SDS011;62922;-6.168;106.796;2023-08-12T11:46:49;35.33;;;19.42;;
74473;SDS011;62922;-6.168;106.796;2023-08-12T11:49:15;39.88;;;20.25;;
74473;SDS011;62922;-6.168;106.796;2023-08-12T11:51:43;39.58;;;20.38;;
74473;SDS011;62922;-6.168;106.796;2023-08-12T11:54:10;29.50;;;18.77;;
74473;SDS011;62922;-6.168;106.796;2023-08-12T11:56:36;28.40;;;18.27;;
74473;SDS011;62922;-6.168;106.796;2023-08-12T11:59:02;31.73;;;20.17;;
74473;SDS011;62922;-6.168;106.796;2023-08-12T12:01:28;31.27;;;20.02;;
74473;SDS011;62922;-6.168;106.796;2023-08-12T12:03:54;38.25;;;20.00;;
74473;SDS011;62922;-6.168;106.796;2023-08-12T12:09:07;34.00;;;19.00;;
74473;SDS011;62922;-6.168;106.796;2023-08-12T12:11:36;39.50;;;18.88;;
74473;SDS011;62922;-6.168;106.796;2023-08-12T12:14:02;29.95;;;18.23;;
74473;SDS011;62922;-6.168;106.796;2023-08-12T12:16:50;35.88;;;18.52;;
74473;SDS011;62922;-6.168;106.796;2023-08-12T12:21:42;34.95;;;18.73;;
74473;SDS011;62922;-6.168;106.796;2023-08-12T12:24:09;33.83;;;20.15;;
74473;SDS011;62922;-6.168;106.796;2023-08-12T12:26:35;36.13;;;23.52;;
74473;SDS011;62922;-6.168;106.796;2023-08-12T12:29:04;42.55;;;25.40;;
74473;SDS011;62922;-6.168;106.796;2023-08-12T12:31:32;38.80;;;24.58;;
74473;SDS011;62922;-6.168;106.796;2023-08-12T12:34:00;39.58;;;26.83;;
74473;SDS011;62922;-6.168;106.796;2023-08-12T12:36:26;40.95;;;27.92;;
74473;SDS011;62922;-6.168;106.796;2023-08-12T12:38:51;37.67;;;26.55;;
74473;SDS011;62922;-6.168;106.796;2023-08-12T12:41:17;37.53;;;23.33;;
74473;SDS011;62922;-6.168;106.796;2023-08-12T12:43:43;40.95;;;28.50;;
74473;SDS011;62922;-6.168;106.796;2023-08-12T12:46:11;39.40;;;27.38;;
74473;SDS011;62922;-6.168;106.796;2023-08-12T12:48:37;41.72;;;27.20;;
74473;SDS011;62922;-6.168;106.796;2023-08-12T12:51:03;47.85;;;34.58;;
74473;SDS011;62922;-6.168;106.796;2023-08-12T12:53:29;44.58;;;29.90;;
74473;SDS011;62922;-6.168;106.796;2023-08-12T12:55:55;42.40;;;28.25;;
74473;SDS011;62922;-6.168;106.796;2023-08-12T12:58:23;40.97;;;23.60;;
74473;SDS011;62922;-6.168;106.796;2023-08-12T13:00:49;39.67;;;24.30;;
74473;SDS011;62922;-6.168;106.796;2023-08-12T13:03:15;37.75;;;25.52;;
74473;SDS011;62922;-6.168;106.796;2023-08-12T13:05:40;45.50;;;24.55;;
74473;SDS011;62922;-6.168;106.796;2023-08-12T13:08:08;48.10;;;28.73;;
74473;SDS011;62922;-6.168;106.796;2023-08-12T13:10:34;44.22;;;28.33;;
74473;SDS011;62922;-6.168;106.796;2023-08-12T13:13:00;47.08;;;30.08;;
74473;SDS011;62922;-6.168;106.796;2023-08-12T13:15:26;64.10;;;46.75;;
74473;SDS011;62922;-6.168;106.796;2023-08-12T13:17:52;45.63;;;30.30;;
74473;SDS011;62922;-6.168;106.796;2023-08-12T13:20:18;49.22;;;35.40;;
74473;SDS011;62922;-6.168;106.796;2023-08-12T13:22:44;47.15;;;32.92;;
74473;SDS011;62922;-6.168;106.796;2023-08-12T13:25:10;46.60;;;34.22;;
74473;SDS011;62922;-6.168;106.796;2023-08-12T13:27:36;44.50;;;31.17;;
74473;SDS011;62922;-6.168;106.796;2023-08-12T13:30:01;44.13;;;32.85;;
74473;SDS011;62922;-6.168;106.796;2023-08-12T13:32:29;66.47;;;46.10;;
74473;SDS011;62922;-6.168;106.796;2023-08-12T13:34:55;51.15;;;37.55;;
74473;SDS011;62922;-6.168;106.796;2023-08-12T13:37:21;83.97;;;63.03;;
74473;SDS011;62922;-6.168;106.796;2023-08-12T13:39:47;46.85;;;36.47;;
74473;SDS011;62922;-6.168;106.796;2023-08-12T13:42:12;50.38;;;35.45;;
74473;SDS011;62922;-6.168;106.796;2023-08-12T13:44:38;48.35;;;35.80;;
74473;SDS011;62922;-6.168;106.796;2023-08-12T13:47:04;56.42;;;44.40;;
74473;SDS011;62922;-6.168;106.796;2023-08-12T13:49:31;57.97;;;45.33;;
74473;SDS011;62922;-6.168;106.796;2023-08-12T13:51:57;53.65;;;40.88;;
74473;SDS011;62922;-6.168;106.796;2023-08-12T13:54:24;52.42;;;39.03;;
74473;SDS011;62922;-6.168;106.796;2023-08-12T13:56:50;46.47;;;31.67;;
74473;SDS011;62922;-6.168;106.796;2023-08-12T13:59:16;47.58;;;29.98;;
74473;SDS011;62922;-6.168;106.796;2023-08-12T14:01:42;62.45;;;37.70;;
74473;SDS011;62922;-6.168;106.796;2023-08-12T14:04:11;52.03;;;28.98;;